sensor_id;sensor_type;location;lat;lon;timestamp;P1;durP1;ratioP1;P2;durP2;ratioP2
5555;SDS011;2801;50.972;7.856;2023-10-19T00:00:55;10.32;;;5.10;;
5555;SDS011;2801;50.972;7.856;2023-10-19T00:03:23;7.68;;;4.88;;
5555;SDS011;2801;50.972;7.856;2023-10-19T00:05:51;7.90;;;4.70;;
5555;SDS011;2801;50.972;7.856;2023-10-19T00:08:18;8.52;;;5.10;;
5555;SDS011;2801;50.972;7.856;2023-10-19T00:10:50;9.32;;;4.90;;
5555;SDS011;2801;50.972;7.856;2023-10-19T00:13:42;8.38;;;5.13;;
5555;SDS011;2801;50.972;7.856;2023-10-19T00:16:10;7.70;;;4.72;;
5555;SDS011;2801;50.972;7.856;2023-10-19T00:18:44;10.63;;;4.47;;
5555;SDS011;2801;50.972;7.856;2023-10-19T00:21:15;7.65;;;4.93;;
5555;SDS011;2801;50.972;7.856;2023-10-19T00:23:46;6.78;;;4.57;;
5555;SDS011;2801;50.972;7.856;2023-10-19T00:26:15;6.95;;;4.15;;
5555;SDS011;2801;50.972;7.856;2023-10-19T00:28:51;10.18;;;5.20;;
5555;SDS011;2801;50.972;7.856;2023-10-19T00:31:27;7.93;;;4.43;;
5555;SDS011;2801;50.972;7.856;2023-10-19T00:33:54;8.40;;;4.53;;
5555;SDS011;2801;50.972;7.856;2023-10-19T00:36:22;7.90;;;4.28;;
5555;SDS011;2801;50.972;7.856;2023-10-19T00:38:51;9.23;;;4.28;;
5555;SDS011;2801;50.972;7.856;2023-10-19T00:41:23;7.70;;;4.20;;
5555;SDS011;2801;50.972;7.856;2023-10-19T00:43:57;7.75;;;4.38;;
5555;SDS011;2801;50.972;7.856;2023-10-19T00:46:38;5.43;;;3.53;;
5555;SDS011;2801;50.972;7.856;2023-10-19T00:49:10;6.15;;;3.80;;
5555;SDS011;2801;50.972;7.856;2023-10-19T00:51:43;7.70;;;3.90;;
5555;SDS011;2801;50.972;7.856;2023-10-19T00:54:32;5.32;;;3.53;;
5555;SDS011;2801;50.972;7.856;2023-10-19T00:57:03;8.80;;;4.35;;
5555;SDS011;2801;50.972;7.856;2023-10-19T00:59:37;5.03;;;3.28;;
5555;SDS011;2801;50.972;7.856;2023-10-19T01:02:27;5.95;;;3.97;;
5555;SDS011;2801;50.972;7.856;2023-10-19T01:04:55;6.18;;;3.53;;
5555;SDS011;2801;50.972;7.856;2023-10-19T01:07:32;7.18;;;4.00;;
5555;SDS011;2801;50.972;7.856;2023-10-19T01:10:04;7.72;;;4.43;;
5555;SDS011;2801;50.972;7.856;2023-10-19T01:12:46;6.22;;;3.80;;
5555;SDS011;2801;50.972;7.856;2023-10-19T01:15:15;7.22;;;3.70;;
5555;SDS011;2801;50.972;7.856;2023-10-19T01:17:44;7.30;;;3.85;;
5555;SDS011;2801;50.972;7.856;2023-10-19T01:20:20;6.75;;;3.78;;
5555;SDS011;2801;50.972;7.856;2023-10-19T01:23:00;6.25;;;3.80;;
5555;SDS011;2801;50.972;7.856;2023-10-19T01:25:48;5.40;;;3.45;;
5555;SDS011;2801;50.972;7.856;2023-10-19T01:28:21;9.02;;;4.25;;
5555;SDS011;2801;50.972;7.856;2023-10-19T01:31:05;6.25;;;3.53;;
5555;SDS011;2801;50.972;7.856;2023-10-19T01:33:40;7.40;;;3.92;;
5555;SDS011;2801;50.972;7.856;2023-10-19T01:36:08;7.25;;;4.13;;
5555;SDS011;2801;50.972;7.856;2023-10-19T01:38:39;8.18;;;4.13;;
5555;SDS011;2801;50.972;7.856;2023-10-19T01:41:08;7.43;;;4.07;;
5555;SDS011;2801;50.972;7.856;2023-10-19T01:43:49;8.82;;;4.40;;
5555;SDS011;2801;50.972;7.856;2023-10-19T01:46:22;8.57;;;4.40;;
5555;SDS011;2801;50.972;7.856;2023-10-19T01:48:52;8.48;;;4.03;;
5555;SDS011;2801;50.972;7.856;2023-10-19T01:51:22;8.02;;;4.20;;
5555;SDS011;2801;50.972;7.856;2023-10-19T01:53:53;10.68;;;4.53;;
5555;SDS011;2801;50.972;7.856;2023-10-19T01:56:23;9.90;;;4.82;;
5555;SDS011;2801;50.972;7.856;2023-10-19T01:58:51;8.68;;;4.32;;
5555;SDS011;2801;50.972;7.856;2023-10-19T02:01:21;9.07;;;4.47;;
5555;SDS011;2801;50.972;7.856;2023-10-19T02:03:55;12.27;;;4.40;;
5555;SDS011;2801;50.972;7.856;2023-10-19T02:06:30;12.13;;;4.88;;
5555;SDS011;2801;50.972;7.856;2023-10-19T02:09:07;9.13;;;4.93;;
5555;SDS011;2801;50.972;7.856;2023-10-19T02:11:45;10.88;;;5.32;;
5555;SDS011;2801;50.972;7.856;2023-10-19T02:14:14;10.45;;;5.30;;
5555;SDS011;2801;50.972;7.856;2023-10-19T02:16:46;11.30;;;5.35;;
5555;SDS011;2801;50.972;7.856;2023-10-19T02:19:19;15.65;;;5.45;;
5555;SDS011;2801;50.972;7.856;2023-10-19T02:21:48;13.80;;;5.32;;
5555;SDS011;2801;50.972;7.856;2023-10-19T02:24:19;20.42;;;6.22;;
5555;SDS011;2801;50.972;7.856;2023-10-19T02:26:48;15.93;;;6.43;;
5555;SDS011;2801;50.972;7.856;2023-10-19T02:29:20;17.00;;;6.28;;
5555;SDS011;2801;50.972;7.856;2023-10-19T02:31:54;13.63;;;6.38;;
5555;SDS011;2801;50.972;7.856;2023-10-19T02:34:23;14.77;;;6.18;;
5555;SDS011;2801;50.972;7.856;2023-10-19T02:36:50;17.90;;;6.15;;
5555;SDS011;2801;50.972;7.856;2023-10-19T02:39:17;15.80;;;6.75;;
5555;SDS011;2801;50.972;7.856;2023-10-19T02:41:45;13.73;;;6.93;;
5555;SDS011;2801;50.972;7.856;2023-10-19T02:44:15;21.33;;;7.82;;
5555;SDS011;2801;50.972;7.856;2023-10-19T02:46:46;15.57;;;7.20;;
5555;SDS011;2801;50.972;7.856;2023-10-19T02:49:17;21.08;;;6.40;;
5555;SDS011;2801;50.972;7.856;2023-10-19T02:51:50;20.90;;;5.90;;
5555;SDS011;2801;50.972;7.856;2023-10-19T02:54:20;17.98;;;6.85;;
5555;SDS011;2801;50.972;7.856;2023-10-19T02:56:53;15.80;;;6.45;;
5555;SDS011;2801;50.972;7.856;2023-10-19T02:59:26;19.40;;;7.20;;
5555;SDS011;2801;50.972;7.856;2023-10-19T03:01:59;25.42;;;7.22;;
5555;SDS011;2801;50.972;7.856;2023-10-19T03:04:29;16.65;;;7.28;;
5555;SDS011;2801;50.972;7.856;2023-10-19T03:06:57;23.23;;;7.43;;
5555;SDS011;2801;50.972;7.856;2023-10-19T03:09:24;18.70;;;7.30;;
5555;SDS011;2801;50.972;7.856;2023-10-19T03:11:54;25.48;;;7.68;;
5555;SDS011;2801;50.972;7.856;2023-10-19T03:14:33;22.23;;;8.13;;
5555;SDS011;2801;50.972;7.856;2023-10-19T03:17:00;32.05;;;8.75;;
5555;SDS011;2801;50.972;7.856;2023-10-19T03:19:28;30.77;;;8.18;;
5555;SDS011;2801;50.972;7.856;2023-10-19T03:21:55;24.65;;;7.85;;
5555;SDS011;2801;50.972;7.856;2023-10-19T03:24:26;24.27;;;8.63;;
5555;SDS011;2801;50.972;7.856;2023-10-19T03:27:03;28.83;;;8.48;;
5555;SDS011;2801;50.972;7.856;2023-10-19T03:29:49;31.25;;;8.82;;
5555;SDS011;2801;50.972;7.856;2023-10-19T03:32:22;27.70;;;8.27;;
5555;SDS011;2801;50.972;7.856;2023-10-19T03:34:54;22.05;;;8.18;;
5555;SDS011;2801;50.972;7.856;2023-10-19T03:37:23;33.60;;;9.32;;
5555;SDS011;2801;50.972;7.856;2023-10-19T03:39:52;25.60;;;8.60;;
5555;SDS011;2801;50.972;7.856;2023-10-19T03:42:23;30.08;;;9.65;;
5555;SDS011;2801;50.972;7.856;2023-10-19T03:44:59;30.05;;;8.40;;
5555;SDS011;2801;50.972;7.856;2023-10-19T03:47:34;26.67;;;9.32;;
5555;SDS011;2801;50.972;7.856;2023-10-19T03:50:02;31.08;;;9.35;;
5555;SDS011;2801;50.972;7.856;2023-10-19T03:52:37;32.03;;;8.88;;
5555;SDS011;2801;50.972;7.856;2023-10-19T03:55:05;35.42;;;9.32;;
5555;SDS011;2801;50.972;7.856;2023-10-19T03:57:38;35.72;;;8.73;;
5555;SDS011;2801;50.972;7.856;2023-10-19T04:00:13;28.45;;;9.23;;
5555;SDS011;2801;50.972;7.856;2023-10-19T04:02:45;36.17;;;9.43;;
5555;SDS011;2801;50.972;7.856;2023-10-19T04:05:13;32.83;;;8.90;;
5555;SDS011;2801;50.972;7.856;2023-10-19T04:07:47;32.80;;;9.23;;
5555;SDS011;2801;50.972;7.856;2023-10-19T04:10:16;33.17;;;9.52;;
5555;SDS011;2801;50.972;7.856;2023-10-19T04:13:02;31.95;;;8.75;;
5555;SDS011;2801;50.972;7.856;2023-10-19T04:15:30;32.10;;;9.30;;
5555;SDS011;2801;50.972;7.856;2023-10-19T04:18:02;42.67;;;10.18;;
5555;SDS011;2801;50.972;7.856;2023-10-19T04:20:38;30.77;;;9.02;;
5555;SDS011;2801;50.972;7.856;2023-10-19T04:23:21;37.00;;;9.70;;
5555;SDS011;2801;50.972;7.856;2023-10-19T04:25:56;34.20;;;9.55;;
5555;SDS011;2801;50.972;7.856;2023-10-19T04:28:24;29.55;;;9.13;;
5555;SDS011;2801;50.972;7.856;2023-10-19T04:30:57;34.67;;;9.90;;
5555;SDS011;2801;50.972;7.856;2023-10-19T04:33:30;38.40;;;9.80;;
5555;SDS011;2801;50.972;7.856;2023-10-19T04:35:58;36.75;;;9.77;;
5555;SDS011;2801;50.972;7.856;2023-10-19T04:38:27;34.05;;;10.90;;
5555;SDS011;2801;50.972;7.856;2023-10-19T04:41:04;35.00;;;10.02;;
5555;SDS011;2801;50.972;7.856;2023-10-19T04:43:36;33.53;;;10.60;;
5555;SDS011;2801;50.972;7.856;2023-10-19T04:46:10;37.53;;;10.45;;
5555;SDS011;2801;50.972;7.856;2023-10-19T04:48:41;38.03;;;10.50;;
5555;SDS011;2801;50.972;7.856;2023-10-19T04:51:09;46.47;;;11.13;;
5555;SDS011;2801;50.972;7.856;2023-10-19T04:53:37;45.33;;;10.77;;
5555;SDS011;2801;50.972;7.856;2023-10-19T04:56:05;41.78;;;10.40;;
5555;SDS011;2801;50.972;7.856;2023-10-19T04:58:36;51.38;;;10.93;;
5555;SDS011;2801;50.972;7.856;2023-10-19T05:01:03;53.40;;;10.93;;
5555;SDS011;2801;50.972;7.856;2023-10-19T05:03:31;48.30;;;11.05;;
5555;SDS011;2801;50.972;7.856;2023-10-19T05:06:00;41.38;;;10.75;;
5555;SDS011;2801;50.972;7.856;2023-10-19T05:08:27;41.05;;;10.30;;
5555;SDS011;2801;50.972;7.856;2023-10-19T05:10:55;38.63;;;10.35;;
5555;SDS011;2801;50.972;7.856;2023-10-19T05:13:25;27.48;;;9.15;;
5555;SDS011;2801;50.972;7.856;2023-10-19T05:15:54;40.17;;;10.23;;
5555;SDS011;2801;50.972;7.856;2023-10-19T05:18:22;45.38;;;10.07;;
5555;SDS011;2801;50.972;7.856;2023-10-19T05:20:50;54.75;;;11.30;;
5555;SDS011;2801;50.972;7.856;2023-10-19T05:23:22;38.72;;;10.75;;
5555;SDS011;2801;50.972;7.856;2023-10-19T05:25:51;48.25;;;10.40;;
5555;SDS011;2801;50.972;7.856;2023-10-19T05:28:29;61.75;;;11.50;;
5555;SDS011;2801;50.972;7.856;2023-10-19T05:30:57;54.60;;;12.20;;
5555;SDS011;2801;50.972;7.856;2023-10-19T05:33:28;50.38;;;12.00;;
5555;SDS011;2801;50.972;7.856;2023-10-19T05:35:56;50.80;;;12.18;;
5555;SDS011;2801;50.972;7.856;2023-10-19T05:38:23;58.72;;;12.48;;
5555;SDS011;2801;50.972;7.856;2023-10-19T05:40:50;51.35;;;12.13;;
5555;SDS011;2801;50.972;7.856;2023-10-19T05:43:18;72.95;;;13.15;;
5555;SDS011;2801;50.972;7.856;2023-10-19T05:45:46;59.30;;;13.57;;
5555;SDS011;2801;50.972;7.856;2023-10-19T05:48:16;58.08;;;13.95;;
5555;SDS011;2801;50.972;7.856;2023-10-19T05:50:44;54.85;;;12.48;;
5555;SDS011;2801;50.972;7.856;2023-10-19T05:53:16;52.60;;;11.50;;
5555;SDS011;2801;50.972;7.856;2023-10-19T05:55:48;59.25;;;11.68;;
5555;SDS011;2801;50.972;7.856;2023-10-19T05:58:16;37.85;;;10.23;;
5555;SDS011;2801;50.972;7.856;2023-10-19T06:00:43;41.22;;;10.70;;
5555;SDS011;2801;50.972;7.856;2023-10-19T06:03:10;64.82;;;11.80;;
5555;SDS011;2801;50.972;7.856;2023-10-19T06:05:37;50.63;;;11.02;;
5555;SDS011;2801;50.972;7.856;2023-10-19T06:08:04;43.47;;;11.23;;
5555;SDS011;2801;50.972;7.856;2023-10-19T06:10:32;42.08;;;11.73;;
5555;SDS011;2801;50.972;7.856;2023-10-19T06:13:01;32.90;;;10.70;;
5555;SDS011;2801;50.972;7.856;2023-10-19T06:15:30;50.10;;;10.82;;
5555;SDS011;2801;50.972;7.856;2023-10-19T06:17:58;47.33;;;11.23;;
5555;SDS011;2801;50.972;7.856;2023-10-19T06:20:26;35.88;;;11.15;;
5555;SDS011;2801;50.972;7.856;2023-10-19T06:22:53;48.88;;;11.30;;
5555;SDS011;2801;50.972;7.856;2023-10-19T06:25:23;46.90;;;11.32;;
5555;SDS011;2801;50.972;7.856;2023-10-19T06:27:52;43.90;;;11.70;;
5555;SDS011;2801;50.972;7.856;2023-10-19T06:30:24;61.47;;;13.90;;
5555;SDS011;2801;50.972;7.856;2023-10-19T06:32:58;50.35;;;11.93;;
5555;SDS011;2801;50.972;7.856;2023-10-19T06:35:30;41.78;;;11.40;;
5555;SDS011;2801;50.972;7.856;2023-10-19T06:37:59;35.00;;;10.27;;
5555;SDS011;2801;50.972;7.856;2023-10-19T06:40:30;45.72;;;11.30;;
5555;SDS011;2801;50.972;7.856;2023-10-19T06:43:03;43.45;;;11.15;;
5555;SDS011;2801;50.972;7.856;2023-10-19T06:45:32;46.97;;;11.80;;
5555;SDS011;2801;50.972;7.856;2023-10-19T06:47:59;60.58;;;12.38;;
5555;SDS011;2801;50.972;7.856;2023-10-19T06:50:27;57.53;;;12.23;;
5555;SDS011;2801;50.972;7.856;2023-10-19T06:52:54;52.15;;;12.93;;
5555;SDS011;2801;50.972;7.856;2023-10-19T06:55:22;50.78;;;12.52;;
5555;SDS011;2801;50.972;7.856;2023-10-19T06:57:50;62.47;;;13.55;;
5555;SDS011;2801;50.972;7.856;2023-10-19T07:00:22;45.63;;;12.35;;
5555;SDS011;2801;50.972;7.856;2023-10-19T07:02:54;39.70;;;11.10;;
5555;SDS011;2801;50.972;7.856;2023-10-19T07:05:27;46.72;;;10.85;;
5555;SDS011;2801;50.972;7.856;2023-10-19T07:07:56;49.17;;;12.20;;
5555;SDS011;2801;50.972;7.856;2023-10-19T07:10:26;36.80;;;10.90;;
5555;SDS011;2801;50.972;7.856;2023-10-19T07:12:54;43.13;;;12.40;;
5555;SDS011;2801;50.972;7.856;2023-10-19T07:15:25;33.63;;;10.30;;
5555;SDS011;2801;50.972;7.856;2023-10-19T07:17:53;36.58;;;10.18;;
5555;SDS011;2801;50.972;7.856;2023-10-19T07:20:21;34.05;;;8.95;;
5555;SDS011;2801;50.972;7.856;2023-10-19T07:22:53;27.13;;;8.18;;
5555;SDS011;2801;50.972;7.856;2023-10-19T07:25:44;28.63;;;8.32;;
5555;SDS011;2801;50.972;7.856;2023-10-19T07:28:15;26.40;;;8.13;;
5555;SDS011;2801;50.972;7.856;2023-10-19T07:30:44;22.00;;;7.28;;
5555;SDS011;2801;50.972;7.856;2023-10-19T07:33:11;24.70;;;7.28;;
5555;SDS011;2801;50.972;7.856;2023-10-19T07:35:49;21.65;;;7.65;;
5555;SDS011;2801;50.972;7.856;2023-10-19T07:38:26;26.98;;;7.68;;
5555;SDS011;2801;50.972;7.856;2023-10-19T07:40:55;23.35;;;7.15;;
5555;SDS011;2801;50.972;7.856;2023-10-19T07:43:23;22.27;;;6.72;;
5555;SDS011;2801;50.972;7.856;2023-10-19T07:45:52;25.90;;;7.20;;
5555;SDS011;2801;50.972;7.856;2023-10-19T07:48:19;23.55;;;7.32;;
5555;SDS011;2801;50.972;7.856;2023-10-19T07:50:50;28.55;;;7.32;;
5555;SDS011;2801;50.972;7.856;2023-10-19T07:53:19;19.10;;;6.32;;
5555;SDS011;2801;50.972;7.856;2023-10-19T07:55:48;22.27;;;6.50;;
5555;SDS011;2801;50.972;7.856;2023-10-19T07:58:15;21.70;;;6.38;;
5555;SDS011;2801;50.972;7.856;2023-10-19T08:00:43;19.77;;;6.72;;
5555;SDS011;2801;50.972;7.856;2023-10-19T08:03:13;23.95;;;6.60;;
5555;SDS011;2801;50.972;7.856;2023-10-19T08:05:43;18.25;;;6.28;;
5555;SDS011;2801;50.972;7.856;2023-10-19T08:08:10;19.65;;;6.40;;
5555;SDS011;2801;50.972;7.856;2023-10-19T08:10:39;23.63;;;6.47;;
5555;SDS011;2801;50.972;7.856;2023-10-19T08:13:06;21.52;;;5.88;;
5555;SDS011;2801;50.972;7.856;2023-10-19T08:15:33;20.58;;;5.97;;
5555;SDS011;2801;50.972;7.856;2023-10-19T08:18:00;14.98;;;5.70;;
5555;SDS011;2801;50.972;7.856;2023-10-19T08:20:27;18.52;;;6.03;;
5555;SDS011;2801;50.972;7.856;2023-10-19T08:22:59;16.73;;;5.85;;
5555;SDS011;2801;50.972;7.856;2023-10-19T08:25:28;14.60;;;5.80;;
5555;SDS011;2801;50.972;7.856;2023-10-19T08:28:16;17.83;;;5.75;;
5555;SDS011;2801;50.972;7.856;2023-10-19T08:30:44;13.50;;;5.82;;
5555;SDS011;2801;50.972;7.856;2023-10-19T08:33:23;12.52;;;5.28;;
5555;SDS011;2801;50.972;7.856;2023-10-19T08:35:56;15.75;;;5.70;;
5555;SDS011;2801;50.972;7.856;2023-10-19T08:38:24;14.85;;;5.22;;
5555;SDS011;2801;50.972;7.856;2023-10-19T08:40:51;14.32;;;4.78;;
5555;SDS011;2801;50.972;7.856;2023-10-19T08:43:19;17.42;;;4.60;;
5555;SDS011;2801;50.972;7.856;2023-10-19T08:45:49;13.50;;;4.32;;
5555;SDS011;2801;50.972;7.856;2023-10-19T08:48:16;10.98;;;4.90;;
5555;SDS011;2801;50.972;7.856;2023-10-19T08:50:43;11.13;;;4.70;;
5555;SDS011;2801;50.972;7.856;2023-10-19T08:53:12;9.75;;;4.30;;
5555;SDS011;2801;50.972;7.856;2023-10-19T08:55:46;10.93;;;4.78;;
5555;SDS011;2801;50.972;7.856;2023-10-19T08:58:16;11.25;;;3.92;;
5555;SDS011;2801;50.972;7.856;2023-10-19T09:00:47;12.32;;;3.90;;
5555;SDS011;2801;50.972;7.856;2023-10-19T09:03:23;11.13;;;3.63;;
5555;SDS011;2801;50.972;7.856;2023-10-19T09:05:53;10.45;;;3.83;;
5555;SDS011;2801;50.972;7.856;2023-10-19T09:08:20;11.68;;;3.65;;
5555;SDS011;2801;50.972;7.856;2023-10-19T09:10:49;7.82;;;3.45;;
5555;SDS011;2801;50.972;7.856;2023-10-19T09:13:21;10.35;;;3.70;;
5555;SDS011;2801;50.972;7.856;2023-10-19T09:15:51;7.78;;;3.33;;
5555;SDS011;2801;50.972;7.856;2023-10-19T09:18:23;9.65;;;3.33;;
5555;SDS011;2801;50.972;7.856;2023-10-19T09:20:58;6.22;;;2.92;;
5555;SDS011;2801;50.972;7.856;2023-10-19T09:23:38;9.88;;;2.90;;
5555;SDS011;2801;50.972;7.856;2023-10-19T09:26:05;6.72;;;2.92;;
5555;SDS011;2801;50.972;7.856;2023-10-19T09:28:35;8.82;;;3.38;;
5555;SDS011;2801;50.972;7.856;2023-10-19T09:31:04;7.53;;;2.78;;
5555;SDS011;2801;50.972;7.856;2023-10-19T09:33:36;10.23;;;2.92;;
5555;SDS011;2801;50.972;7.856;2023-10-19T09:36:07;9.65;;;3.30;;
5555;SDS011;2801;50.972;7.856;2023-10-19T09:38:46;9.35;;;2.85;;
5555;SDS011;2801;50.972;7.856;2023-10-19T09:41:21;8.25;;;2.13;;
5555;SDS011;2801;50.972;7.856;2023-10-19T09:43:49;8.10;;;2.65;;
5555;SDS011;2801;50.972;7.856;2023-10-19T09:46:26;6.63;;;2.42;;
5555;SDS011;2801;50.972;7.856;2023-10-19T09:48:58;6.18;;;2.05;;
5555;SDS011;2801;50.972;7.856;2023-10-19T09:51:26;7.70;;;2.35;;
5555;SDS011;2801;50.972;7.856;2023-10-19T09:53:57;5.70;;;1.90;;
5555;SDS011;2801;50.972;7.856;2023-10-19T09:56:55;8.68;;;2.40;;
5555;SDS011;2801;50.972;7.856;2023-10-19T09:59:31;4.18;;;1.92;;
5555;SDS011;2801;50.972;7.856;2023-10-19T10:02:06;8.75;;;2.13;;
5555;SDS011;2801;50.972;7.856;2023-10-19T10:04:40;6.40;;;2.00;;
5555;SDS011;2801;50.972;7.856;2023-10-19T10:07:08;4.70;;;2.03;;
5555;SDS011;2801;50.972;7.856;2023-10-19T10:09:40;10.95;;;1.80;;
5555;SDS011;2801;50.972;7.856;2023-10-19T10:12:24;3.95;;;1.50;;
5555;SDS011;2801;50.972;7.856;2023-10-19T10:14:58;6.72;;;2.10;;
5555;SDS011;2801;50.972;7.856;2023-10-19T10:17:35;5.32;;;1.60;;
5555;SDS011;2801;50.972;7.856;2023-10-19T10:22:41;4.45;;;1.80;;
5555;SDS011;2801;50.972;7.856;2023-10-19T10:25:25;4.82;;;1.80;;
5555;SDS011;2801;50.972;7.856;2023-10-19T10:27:58;7.38;;;1.98;;
5555;SDS011;2801;50.972;7.856;2023-10-19T10:30:25;6.35;;;1.65;;
5555;SDS011;2801;50.972;7.856;2023-10-19T10:32:53;7.38;;;1.80;;
5555;SDS011;2801;50.972;7.856;2023-10-19T10:38:05;4.97;;;1.63;;
5555;SDS011;2801;50.972;7.856;2023-10-19T10:40:48;6.47;;;1.52;;
5555;SDS011;2801;50.972;7.856;2023-10-19T10:43:18;7.78;;;1.83;;
5555;SDS011;2801;50.972;7.856;2023-10-19T10:45:47;6.72;;;1.73;;
5555;SDS011;2801;50.972;7.856;2023-10-19T10:48:15;8.73;;;1.73;;
5555;SDS011;2801;50.972;7.856;2023-10-19T10:50:45;7.07;;;1.77;;
5555;SDS011;2801;50.972;7.856;2023-10-19T10:53:13;5.22;;;1.50;;
5555;SDS011;2801;50.972;7.856;2023-10-19T10:55:44;7.15;;;1.70;;
5555;SDS011;2801;50.972;7.856;2023-10-19T10:58:17;6.13;;;1.52;;
5555;SDS011;2801;50.972;7.856;2023-10-19T11:00:46;9.52;;;1.45;;
5555;SDS011;2801;50.972;7.856;2023-10-19T11:03:15;5.65;;;1.70;;
5555;SDS011;2801;50.972;7.856;2023-10-19T11:05:42;5.18;;;1.50;;
5555;SDS011;2801;50.972;7.856;2023-10-19T11:08:15;5.93;;;1.52;;
5555;SDS011;2801;50.972;7.856;2023-10-19T11:10:44;9.50;;;2.05;;
5555;SDS011;2801;50.972;7.856;2023-10-19T11:13:22;4.50;;;1.60;;
5555;SDS011;2801;50.972;7.856;2023-10-19T11:15:52;5.10;;;1.50;;
5555;SDS011;2801;50.972;7.856;2023-10-19T11:21:09;3.95;;;1.30;;
5555;SDS011;2801;50.972;7.856;2023-10-19T11:23:39;5.70;;;1.52;;
5555;SDS011;2801;50.972;7.856;2023-10-19T11:26:12;3.55;;;1.40;;
5555;SDS011;2801;50.972;7.856;2023-10-19T11:28:42;5.78;;;1.52;;
5555;SDS011;2801;50.972;7.856;2023-10-19T11:31:21;4.80;;;1.17;;
5555;SDS011;2801;50.972;7.856;2023-10-19T11:33:51;3.38;;;1.50;;
5555;SDS011;2801;50.972;7.856;2023-10-19T11:36:21;6.60;;;1.58;;
5555;SDS011;2801;50.972;7.856;2023-10-19T11:38:50;6.60;;;1.48;;
5555;SDS011;2801;50.972;7.856;2023-10-19T11:41:20;6.72;;;1.55;;
5555;SDS011;2801;50.972;7.856;2023-10-19T11:43:49;4.85;;;1.60;;
5555;SDS011;2801;50.972;7.856;2023-10-19T11:46:20;5.80;;;1.42;;
5555;SDS011;2801;50.972;7.856;2023-10-19T11:48:52;5.80;;;1.73;;
5555;SDS011;2801;50.972;7.856;2023-10-19T11:51:19;3.88;;;1.67;;
5555;SDS011;2801;50.972;7.856;2023-10-19T11:53:46;5.45;;;1.80;;
5555;SDS011;2801;50.972;7.856;2023-10-19T11:56:13;5.07;;;1.80;;
5555;SDS011;2801;50.972;7.856;2023-10-19T11:58:42;4.47;;;1.50;;
5555;SDS011;2801;50.972;7.856;2023-10-19T12:01:13;5.95;;;1.60;;
5555;SDS011;2801;50.972;7.856;2023-10-19T12:03:45;5.18;;;1.63;;
5555;SDS011;2801;50.972;7.856;2023-10-19T12:06:15;7.05;;;1.77;;
5555;SDS011;2801;50.972;7.856;2023-10-19T12:08:46;5.68;;;1.38;;
5555;SDS011;2801;50.972;7.856;2023-10-19T12:11:13;7.55;;;1.60;;
5555;SDS011;2801;50.972;7.856;2023-10-19T12:13:45;7.38;;;1.95;;
5555;SDS011;2801;50.972;7.856;2023-10-19T12:16:14;7.97;;;1.90;;
5555;SDS011;2801;50.972;7.856;2023-10-19T12:18:43;9.10;;;1.95;;
5555;SDS011;2801;50.972;7.856;2023-10-19T12:21:12;7.45;;;1.65;;
5555;SDS011;2801;50.972;7.856;2023-10-19T12:23:44;5.70;;;1.83;;
5555;SDS011;2801;50.972;7.856;2023-10-19T12:26:18;5.78;;;1.58;;
5555;SDS011;2801;50.972;7.856;2023-10-19T12:28:46;6.88;;;1.65;;
5555;SDS011;2801;50.972;7.856;2023-10-19T12:31:15;5.82;;;1.85;;
5555;SDS011;2801;50.972;7.856;2023-10-19T12:33:45;6.28;;;1.92;;
5555;SDS011;2801;50.972;7.856;2023-10-19T12:36:13;5.03;;;1.73;;
5555;SDS011;2801;50.972;7.856;2023-10-19T12:38:54;6.07;;;2.35;;
5555;SDS011;2801;50.972;7.856;2023-10-19T12:41:21;5.05;;;1.80;;
5555;SDS011;2801;50.972;7.856;2023-10-19T12:43:48;3.78;;;1.73;;
5555;SDS011;2801;50.972;7.856;2023-10-19T12:46:19;4.05;;;1.65;;
5555;SDS011;2801;50.972;7.856;2023-10-19T12:48:51;5.75;;;1.63;;
5555;SDS011;2801;50.972;7.856;2023-10-19T12:51:19;6.40;;;1.88;;
5555;SDS011;2801;50.972;7.856;2023-10-19T12:53:50;4.97;;;1.67;;
5555;SDS011;2801;50.972;7.856;2023-10-19T12:56:18;7.32;;;1.88;;
5555;SDS011;2801;50.972;7.856;2023-10-19T12:58:47;4.47;;;1.85;;
5555;SDS011;2801;50.972;7.856;2023-10-19T13:01:14;7.40;;;1.75;;
5555;SDS011;2801;50.972;7.856;2023-10-19T13:03:48;3.80;;;1.65;;
5555;SDS011;2801;50.972;7.856;2023-10-19T13:06:18;7.68;;;2.13;;
5555;SDS011;2801;50.972;7.856;2023-10-19T13:08:46;6.70;;;1.83;;
5555;SDS011;2801;50.972;7.856;2023-10-19T13:11:13;8.52;;;2.45;;
5555;SDS011;2801;50.972;7.856;2023-10-19T13:13:44;11.27;;;2.72;;
5555;SDS011;2801;50.972;7.856;2023-10-19T13:16:14;4.65;;;2.20;;
5555;SDS011;2801;50.972;7.856;2023-10-19T13:18:43;5.55;;;2.00;;
5555;SDS011;2801;50.972;7.856;2023-10-19T13:21:10;10.45;;;2.28;;
5555;SDS011;2801;50.972;7.856;2023-10-19T13:23:48;5.75;;;2.20;;
5555;SDS011;2801;50.972;7.856;2023-10-19T13:26:15;3.88;;;2.40;;
5555;SDS011;2801;50.972;7.856;2023-10-19T13:28:45;7.05;;;2.40;;
5555;SDS011;2801;50.972;7.856;2023-10-19T13:31:13;7.13;;;2.50;;
5555;SDS011;2801;50.972;7.856;2023-10-19T13:33:42;5.75;;;2.38;;
5555;SDS011;2801;50.972;7.856;2023-10-19T13:36:10;7.95;;;2.25;;
5555;SDS011;2801;50.972;7.856;2023-10-19T13:38:40;10.90;;;2.25;;
5555;SDS011;2801;50.972;7.856;2023-10-19T13:41:10;10.50;;;2.70;;
5555;SDS011;2801;50.972;7.856;2023-10-19T13:43:41;10.18;;;2.67;;
5555;SDS011;2801;50.972;7.856;2023-10-19T13:46:09;5.40;;;2.13;;
5555;SDS011;2801;50.972;7.856;2023-10-19T13:48:37;5.32;;;2.30;;
5555;SDS011;2801;50.972;7.856;2023-10-19T13:51:06;7.13;;;2.58;;
5555;SDS011;2801;50.972;7.856;2023-10-19T13:53:40;4.60;;;2.60;;
5555;SDS011;2801;50.972;7.856;2023-10-19T13:56:08;12.35;;;2.83;;
5555;SDS011;2801;50.972;7.856;2023-10-19T13:58:38;9.38;;;2.90;;
5555;SDS011;2801;50.972;7.856;2023-10-19T14:01:07;6.28;;;2.70;;
5555;SDS011;2801;50.972;7.856;2023-10-19T14:03:38;4.93;;;2.70;;
5555;SDS011;2801;50.972;7.856;2023-10-19T14:06:11;7.65;;;2.83;;
5555;SDS011;2801;50.972;7.856;2023-10-19T14:08:40;6.15;;;3.00;;
5555;SDS011;2801;50.972;7.856;2023-10-19T14:11:08;9.55;;;3.55;;
5555;SDS011;2801;50.972;7.856;2023-10-19T14:13:36;6.25;;;3.00;;
5555;SDS011;2801;50.972;7.856;2023-10-19T14:16:06;6.32;;;3.25;;
5555;SDS011;2801;50.972;7.856;2023-10-19T14:18:36;9.32;;;3.00;;
5555;SDS011;2801;50.972;7.856;2023-10-19T14:21:11;9.18;;;3.53;;
5555;SDS011;2801;50.972;7.856;2023-10-19T14:23:45;8.05;;;3.90;;
5555;SDS011;2801;50.972;7.856;2023-10-19T14:26:14;8.95;;;3.45;;
5555;SDS011;2801;50.972;7.856;2023-10-19T14:28:42;9.00;;;3.55;;
5555;SDS011;2801;50.972;7.856;2023-10-19T14:31:09;5.50;;;3.65;;
5555;SDS011;2801;50.972;7.856;2023-10-19T14:33:38;7.30;;;3.40;;
5555;SDS011;2801;50.972;7.856;2023-10-19T14:36:06;6.20;;;3.53;;
5555;SDS011;2801;50.972;7.856;2023-10-19T14:38:35;10.45;;;4.20;;
5555;SDS011;2801;50.972;7.856;2023-10-19T14:41:03;8.65;;;3.90;;
5555;SDS011;2801;50.972;7.856;2023-10-19T14:43:31;6.90;;;4.50;;
5555;SDS011;2801;50.972;7.856;2023-10-19T14:45:59;9.05;;;4.70;;
5555;SDS011;2801;50.972;7.856;2023-10-19T14:48:31;9.93;;;4.63;;
5555;SDS011;2801;50.972;7.856;2023-10-19T14:50:58;8.27;;;5.82;;
5555;SDS011;2801;50.972;7.856;2023-10-19T14:53:25;14.85;;;6.70;;
5555;SDS011;2801;50.972;7.856;2023-10-19T14:55:54;11.45;;;6.47;;
5555;SDS011;2801;50.972;7.856;2023-10-19T14:58:23;9.43;;;6.30;;
5555;SDS011;2801;50.972;7.856;2023-10-19T15:00:52;10.48;;;5.60;;
5555;SDS011;2801;50.972;7.856;2023-10-19T15:03:21;6.85;;;4.80;;
5555;SDS011;2801;50.972;7.856;2023-10-19T15:05:50;11.27;;;5.30;;
5555;SDS011;2801;50.972;7.856;2023-10-19T15:08:21;9.95;;;5.70;;
5555;SDS011;2801;50.972;7.856;2023-10-19T15:10:55;10.65;;;5.32;;
5555;SDS011;2801;50.972;7.856;2023-10-19T15:13:23;9.88;;;5.00;;
5555;SDS011;2801;50.972;7.856;2023-10-19T15:15:50;11.05;;;4.85;;
5555;SDS011;2801;50.972;7.856;2023-10-19T15:18:17;14.80;;;5.68;;
5555;SDS011;2801;50.972;7.856;2023-10-19T15:20:45;9.02;;;5.07;;
5555;SDS011;2801;50.972;7.856;2023-10-19T15:23:12;10.55;;;5.10;;
5555;SDS011;2801;50.972;7.856;2023-10-19T15:25:39;11.10;;;5.97;;
5555;SDS011;2801;50.972;7.856;2023-10-19T15:28:07;17.40;;;6.38;;
5555;SDS011;2801;50.972;7.856;2023-10-19T15:30:36;10.40;;;6.05;;
5555;SDS011;2801;50.972;7.856;2023-10-19T15:33:04;13.85;;;6.75;;
5555;SDS011;2801;50.972;7.856;2023-10-19T15:35:34;13.70;;;6.95;;